Time;durP1;ratioP1;P1;durP2;ratioP2;P2;SDS_P1;SDS_P2;PMS_P1;PMS_P2;Temp;Humidity;BMP_temperature;BMP_pressure;BME280_temperature;BME280_humidity;BME280_pressure;Samples;Min_cycle;Max_cycle;Signal;HPM_P1;HPM_P2
2024/02/15 00:04:08;;;;;;;4.83;4.07;;;13.30;41.40;;;;;;10455508;28;20580;-72
2024/02/15 00:09:11;;;;;;;5.20;4.30;;;13.30;41.10;;;;;;10447346;28;20715;-71
2024/02/15 00:14:16;;;;;;;5.33;3.83;;;13.30;41.40;;;;;;10453787;28;20221;-71
2024/02/15 00:19:21;;;;;;;4.30;3.90;;;13.30;41.60;;;;;;10447520;28;20251;-71
2024/02/15 00:24:24;;;;;;;3.87;3.57;;;13.20;41.20;;;;;;10447215;28;20692;-71
2024/02/15 00:29:29;;;;;;;4.23;3.60;;;13.20;41.10;;;;;;10458236;28;20229;-71
2024/02/15 00:34:33;;;;;;;3.87;3.57;;;13.20;41.50;;;;;;10446614;28;20286;-71
2024/02/15 00:39:36;;;;;;;4.37;3.60;;;13.20;41.10;;;;;;10446558;28;20610;-71
2024/02/15 00:44:42;;;;;;;3.77;3.47;;;13.20;41.00;;;;;;10446886;28;20224;-71
2024/02/15 00:49:45;;;;;;;4.07;3.70;;;13.10;41.10;;;;;;10454795;28;20266;-71
2024/02/15 00:54:48;;;;;;;3.70;3.40;;;13.10;40.80;;;;;;10446110;28;20233;-71
2024/02/15 00:59:53;;;;;;;4.27;3.60;;;13.10;41.00;;;;;;10449521;28;20252;-71
2024/02/15 01:04:58;;;;;;;3.83;3.53;;;13.00;41.10;;;;;;10448411;28;20695;-71
2024/02/15 01:10:03;;;;;;;3.67;3.37;;;12.90;41.00;;;;;;10446018;28;20709;-71
2024/02/15 01:15:08;;;;;;;3.07;2.73;;;12.90;41.20;;;;;;10445873;28;20228;-71
2024/02/15 01:20:12;;;;;;;2.87;2.67;;;12.80;41.50;;;;;;10444534;28;20260;-71
2024/02/15 01:25:17;;;;;;;3.10;2.80;;;12.70;41.40;;;;;;10445354;28;20220;-71
2024/02/15 01:30:21;;;;;;;3.00;2.63;;;12.70;41.50;;;;;;10439181;28;20264;-71
2024/02/15 01:35:25;;;;;;;2.90;2.70;;;12.60;41.70;;;;;;10452748;28;20221;-71
2024/02/15 01:40:28;;;;;;;3.00;2.70;;;12.60;41.70;;;;;;10445381;28;20231;-71
2024/02/15 01:45:33;;;;;;;4.00;2.90;;;12.50;41.90;;;;;;10451904;28;20225;-71
2024/02/15 01:50:36;;;;;;;2.70;2.50;;;12.50;42.10;;;;;;10445237;28;20297;-71
2024/02/15 01:55:40;;;;;;;2.93;2.73;;;12.50;42.10;;;;;;10445031;28;20291;-71
2024/02/15 02:00:45;;;;;;;2.97;2.77;;;12.50;42.10;;;;;;10446056;28;20756;-71
2024/02/15 02:05:48;;;;;;;2.93;2.63;;;12.50;42.10;;;;;;10445859;28;20304;-71
2024/02/15 02:10:53;;;;;;;2.87;2.67;;;12.30;42.00;;;;;;10444477;28;20229;-71
2024/02/15 02:15:59;;;;;;;2.93;2.50;;;12.20;41.90;;;;;;10443717;28;20309;-72
2024/02/15 02:21:05;;;;;;;2.90;2.70;;;12.20;42.40;;;;;;10440417;28;20217;-72
2024/02/15 02:26:10;;;;;;;2.63;2.40;;;12.20;41.90;;;;;;10444136;28;20231;-71
2024/02/15 02:31:13;;;;;;;2.70;2.50;;;12.20;42.50;;;;;;10447498;28;20229;-72
2024/02/15 02:36:17;;;;;;;4.20;2.60;;;12.20;42.10;;;;;;10450284;28;20303;-71
2024/02/15 02:41:23;;;;;;;2.90;2.60;;;12.20;42.10;;;;;;10451345;28;20217;-71
2024/02/15 02:46:26;;;;;;;3.20;2.50;;;12.20;42.50;;;;;;10464802;28;21036;-71
2024/02/15 02:51:29;;;;;;;2.13;2.00;;;12.00;42.30;;;;;;10440874;28;20292;-72
2024/02/15 02:56:34;;;;;;;2.40;2.10;;;11.90;42.60;;;;;;10450273;28;20300;-71
2024/02/15 03:01:39;;;;;;;2.20;2.00;;;11.90;43.20;;;;;;10450286;28;20225;-71
2024/02/15 03:06:42;;;;;;;3.03;2.50;;;11.90;42.80;;;;;;10454859;28;20243;-71
2024/02/15 03:11:47;;;;;;;2.30;2.10;;;12.00;43.00;;;;;;10449946;28;20233;-72
2024/02/15 03:16:50;;;;;;;2.20;2.10;;;12.00;43.10;;;;;;10449879;28;20517;-71
2024/02/15 03:21:53;;;;;;;2.13;1.97;;;12.00;43.30;;;;;;10449888;28;20252;-71
2024/02/15 03:26:58;;;;;;;2.30;2.10;;;12.00;42.70;;;;;;10455314;28;20923;-72
2024/02/15 03:32:01;;;;;;;2.30;2.10;;;12.10;43.20;;;;;;10448823;28;20259;-70
2024/02/15 03:37:04;;;;;;;1.93;1.83;;;12.10;42.90;;;;;;10444453;28;20696;-71
2024/02/15 03:42:09;;;;;;;2.40;2.20;;;12.20;42.90;;;;;;10447441;28;20320;-71
2024/02/15 03:47:13;;;;;;;2.47;2.27;;;12.30;43.00;;;;;;10448755;28;20275;-71
2024/02/15 03:52:16;;;;;;;2.83;2.50;;;12.30;42.50;;;;;;10446600;28;20247;-71
2024/02/15 03:57:21;;;;;;;3.17;2.80;;;12.40;42.50;;;;;;10448019;28;20692;-71
2024/02/15 04:02:26;;;;;;;3.33;2.73;;;12.40;42.70;;;;;;10443194;28;20229;-71
2024/02/15 04:07:29;;;;;;;4.07;2.43;;;12.50;42.70;;;;;;10444891;28;20229;-71
2024/02/15 04:12:34;;;;;;;2.30;2.10;;;12.50;42.60;;;;;;10447491;28;20232;-71
2024/02/15 04:17:38;;;;;;;2.40;2.30;;;12.50;42.90;;;;;;10442074;28;20233;-71
2024/02/15 04:22:43;;;;;;;2.37;2.17;;;12.50;42.50;;;;;;10447129;28;20224;-71
2024/02/15 04:27:49;;;;;;;2.50;2.30;;;12.50;42.40;;;;;;10446768;28;20233;-70
2024/02/15 04:32:53;;;;;;;2.43;2.27;;;12.50;42.80;;;;;;10442137;28;20229;-71
2024/02/15 04:37:57;;;;;;;5.70;5.00;;;12.50;42.30;;;;;;10450008;28;20802;-71
2024/02/15 04:43:04;;;;;;;5.97;5.37;;;12.50;42.50;;;;;;10446397;28;20248;-71
2024/02/15 04:48:08;;;;;;;5.63;5.13;;;12.50;42.80;;;;;;10450621;28;20229;-71
2024/02/15 04:53:12;;;;;;;6.07;5.10;;;12.40;42.70;;;;;;10459142;28;20311;-71
2024/02/15 04:58:16;;;;;;;6.23;5.63;;;12.40;42.90;;;;;;10442087;28;20328;-71
2024/02/15 05:03:19;;;;;;;6.40;5.80;;;12.40;43.20;;;;;;10444504;28;20313;-70
2024/02/15 05:08:23;;;;;;;6.07;5.47;;;12.40;42.90;;;;;;10445822;28;20229;-71
2024/02/15 05:13:27;;;;;;;4.50;4.10;;;12.30;42.80;;;;;;10445560;28;20744;-71
2024/02/15 05:18:30;;;;;;;3.30;3.00;;;12.30;43.90;;;;;;10445382;28;20711;-72
2024/02/15 05:23:34;;;;;;;3.00;2.80;;;12.40;43.00;;;;;;10449922;28;20232;-71
2024/02/15 05:28:39;;;;;;;3.73;3.43;;;12.40;43.10;;;;;;10445134;28;20280;-71
2024/02/15 05:33:43;;;;;;;3.10;2.63;;;12.40;43.30;;;;;;10444865;28;20233;-71
2024/02/15 05:38:49;;;;;;;3.20;2.90;;;12.40;43.00;;;;;;10444612;28;20231;-72
2024/02/15 05:43:53;;;;;;;4.90;3.97;;;12.30;43.10;;;;;;10446813;28;20931;-71
2024/02/15 05:48:57;;;;;;;3.73;3.33;;;12.30;43.40;;;;;;10443189;28;20232;-71
2024/02/15 05:54:00;;;;;;;3.77;2.30;;;12.20;43.20;;;;;;10442542;28;20602;-72
2024/02/15 05:59:10;;;;;;;2.80;2.60;;;12.20;43.20;;;;;;10444123;28;20245;-71
2024/02/15 06:04:13;;;;;;;2.43;2.23;;;12.10;43.60;;;;;;10444511;28;20251;-72
2024/02/15 06:09:16;;;;;;;2.70;2.50;;;12.10;43.40;;;;;;10452423;28;20711;-72
2024/02/15 06:14:21;;;;;;;2.80;2.60;;;12.20;43.50;;;;;;10447650;28;20709;-71
2024/02/15 06:19:24;;;;;;;3.10;2.80;;;12.20;43.60;;;;;;10451381;28;20230;-72
2024/02/15 06:24:28;;;;;;;4.23;3.40;;;12.20;43.20;;;;;;10451069;28;20900;-71
2024/02/15 06:40:13;;;;;;;2.47;2.27;;;12.10;43.80;;;;;;10446262;28;20297;-71
2024/02/15 06:45:19;;;;;;;4.00;3.13;;;12.00;43.10;;;;;;10447878;28;20254;-71
2024/02/15 06:50:23;;;;;;;2.67;2.47;;;11.90;43.50;;;;;;10448772;28;20225;-71
2024/02/15 06:55:26;;;;;;;3.20;2.90;;;11.80;43.20;;;;;;10448113;28;20661;-72
2024/02/15 07:00:31;;;;;;;2.83;2.63;;;11.80;43.40;;;;;;10450132;28;20627;-72
2024/02/15 07:05:34;;;;;;;2.83;2.60;;;11.70;43.80;;;;;;10447069;28;20231;-71
2024/02/15 07:10:39;;;;;;;5.23;2.83;;;11.70;43.50;;;;;;10449136;28;20685;-72
2024/02/15 07:15:44;;;;;;;3.67;3.37;;;11.70;43.70;;;;;;10447432;28;20236;-71
2024/02/15 07:20:47;;;;;;;3.13;2.80;;;11.80;43.80;;;;;;10449408;28;20228;-71
2024/02/15 07:25:53;;;;;;;2.57;2.37;;;11.80;43.40;;;;;;10446195;28;20220;-71
2024/02/15 07:30:58;;;;;;;3.00;2.63;;;11.70;43.30;;;;;;10442239;28;20243;-72
2024/02/15 07:36:01;;;;;;;3.03;2.77;;;11.70;43.70;;;;;;10419463;28;20879;-73
2024/02/15 07:41:05;;;;;;;2.77;2.57;;;11.60;43.70;;;;;;10422897;28;21252;-74
2024/02/15 07:46:15;;;;;;;3.10;2.80;;;11.70;43.70;;;;;;10439528;28;20229;-73
2024/02/15 07:51:20;;;;;;;2.70;2.50;;;11.70;44.10;;;;;;10439080;28;20221;-74
2024/02/15 07:56:23;;;;;;;3.30;3.00;;;11.70;43.70;;;;;;10439753;28;20600;-73
2024/02/15 08:01:30;;;;;;;3.23;2.93;;;11.70;43.70;;;;;;10440022;28;20344;-74
2024/02/15 08:06:36;;;;;;;3.53;3.07;;;11.80;44.10;;;;;;10439250;28;20233;-74
2024/02/15 08:11:40;;;;;;;5.13;4.63;;;11.90;43.90;;;;;;10447028;28;20330;-74
2024/02/15 08:16:45;;;;;;;3.40;3.10;;;12.00;44.00;;;;;;10448240;28;20259;-73
2024/02/15 08:21:50;;;;;;;3.10;2.80;;;12.20;44.30;;;;;;10443451;28;20622;-72
2024/02/15 08:26:54;;;;;;;3.50;3.00;;;12.30;44.00;;;;;;10415188;28;20262;-75
2024/02/15 08:31:59;;;;;;;3.07;2.60;;;12.40;44.00;;;;;;10444608;28;20729;-74
2024/02/15 08:37:02;;;;;;;2.80;2.50;;;12.60;43.80;;;;;;10453307;28;20307;-74
2024/02/15 08:42:06;;;;;;;2.80;2.60;;;12.80;43.90;;;;;;10444443;28;20315;-75
2024/02/15 08:47:11;;;;;;;2.80;2.60;;;13.00;44.10;;;;;;10445970;28;20228;-74
2024/02/15 08:52:17;;;;;;;2.50;2.30;;;13.20;43.20;;;;;;10446747;28;20221;-74
2024/02/15 08:57:20;;;;;;;2.67;2.47;;;13.30;43.00;;;;;;10446898;28;20283;-79
2024/02/15 09:02:25;;;;;;;2.80;2.50;;;13.50;43.00;;;;;;10446650;28;20692;-74
2024/02/15 09:07:28;;;;;;;4.03;2.80;;;13.60;43.10;;;;;;10446745;28;20306;-74
2024/02/15 09:12:31;;;;;;;3.57;3.10;;;13.80;43.30;;;;;;10446972;28;20220;-74
2024/02/15 09:17:38;;;;;;;5.13;3.13;;;13.90;43.40;;;;;;10446353;28;20248;-74
2024/02/15 09:22:44;;;;;;;3.90;3.60;;;14.10;42.90;;;;;;10446380;28;20309;-75
2024/02/15 09:27:47;;;;;;;2.70;2.50;;;14.30;42.80;;;;;;10446537;28;20307;-75
2024/02/15 09:32:52;;;;;;;2.70;2.50;;;14.50;42.50;;;;;;10446270;28;20224;-74
2024/02/15 09:37:56;;;;;;;2.83;2.63;;;14.60;41.80;;;;;;10445739;28;20237;-74
2024/02/15 09:43:00;;;;;;;2.57;2.37;;;14.80;42.10;;;;;;10454879;28;20248;-75
2024/02/15 09:48:08;;;;;;;2.70;2.50;;;14.90;42.00;;;;;;10454370;28;20327;-74
2024/02/15 09:53:12;;;;;;;2.33;2.13;;;15.10;40.90;;;;;;10454292;28;20235;-74
2024/02/15 09:58:15;;;;;;;2.33;2.17;;;15.30;41.80;;;;;;10453991;28;20323;-73
2024/02/15 10:03:23;;;;;;;2.60;2.40;;;15.50;42.00;;;;;;10442614;28;20250;-76
2024/02/15 10:08:26;;;;;;;2.37;2.00;;;15.70;40.80;;;;;;10449769;28;20314;-77
2024/02/15 10:13:31;;;;;;;2.43;2.13;;;16.00;41.10;;;;;;10450193;28;20303;-76
2024/02/15 10:18:36;;;;;;;2.80;1.83;;;16.10;40.50;;;;;;10442127;28;20263;-78
2024/02/15 10:23:39;;;;;;;1.90;1.80;;;16.30;40.30;;;;;;10442383;28;21780;-77
2024/02/15 10:28:43;;;;;;;2.00;1.80;;;16.40;40.90;;;;;;10443964;28;21190;-81
2024/02/15 10:33:47;;;;;;;2.07;1.80;;;16.60;40.70;;;;;;10444745;28;20256;-79
2024/02/15 10:38:51;;;;;;;2.53;1.90;;;16.80;39.90;;;;;;10448917;28;20228;-74
2024/02/15 10:43:54;;;;;;;1.90;1.80;;;17.00;40.10;;;;;;10452686;28;20220;-74
2024/02/15 10:49:00;;;;;;;2.33;1.90;;;17.10;40.30;;;;;;10451635;28;20906;-76
2024/02/15 10:54:05;;;;;;;2.90;1.90;;;17.30;39.40;;;;;;10451469;28;20681;-75
2024/02/15 10:59:17;;;;;;;2.97;2.00;;;17.50;39.00;;;;;;10451576;28;20259;-75
2024/02/15 11:04:23;;;;;;;2.63;1.97;;;17.50;38.30;;;;;;10451365;28;20314;-74
2024/02/15 11:09:26;;;;;;;3.87;3.00;;;17.60;38.60;;;;;;10448165;28;20653;-74
2024/02/15 11:14:31;;;;;;;2.57;1.63;;;17.70;38.90;;;;;;10451009;28;20232;-75
2024/02/15 11:19:46;;;;;;;3.03;2.23;;;17.80;38.90;;;;;;10449607;28;20229;-75
2024/02/15 11:24:52;;;;;;;1.53;1.40;;;17.90;37.60;;;;;;10450719;28;20225;-74
2024/02/15 11:30:02;;;;;;;2.57;1.70;;;18.00;37.90;;;;;;10450181;28;20239;-75
2024/02/15 11:35:11;;;;;;;1.70;1.60;;;18.00;38.40;;;;;;10448458;28;20228;-75
2024/02/15 11:40:16;;;;;;;2.10;1.40;;;18.10;37.40;;;;;;10449191;28;20224;-75
2024/02/15 11:45:20;;;;;;;6.03;3.43;;;18.10;37.90;;;;;;10449860;28;20323;-75
2024/02/15 11:50:25;;;;;;;3.27;1.77;;;18.10;38.10;;;;;;10449786;28;20267;-75
2024/02/15 11:55:28;;;;;;;3.10;2.17;;;18.20;37.70;;;;;;10449254;28;20232;-75
2024/02/15 12:22:00;;;;;;;2.67;1.70;;;18.40;37.60;;;;;;10448439;28;20224;-71
2024/02/15 12:27:06;;;;;;;1.63;1.53;;;18.40;36.30;;;;;;10447627;28;20233;-72
2024/02/15 12:32:09;;;;;;;1.80;1.30;;;18.40;36.90;;;;;;10447694;28;20734;-72
2024/02/15 12:37:14;;;;;;;2.60;1.20;;;18.30;36.20;;;;;;10447742;28;20739;-72
2024/02/15 12:42:19;;;;;;;1.80;0.97;;;18.20;36.40;;;;;;10447611;28;20452;-73
2024/02/15 12:47:24;;;;;;;1.83;1.20;;;18.20;36.90;;;;;;10447294;28;20271;-70
2024/02/15 12:52:39;;;;;;;2.47;1.40;;;18.10;37.00;;;;;;10447356;28;20304;-71
2024/02/15 12:57:48;;;;;;;1.20;1.10;;;18.10;35.50;;;;;;10447063;28;20259;-70
2024/02/15 13:02:52;;;;;;;1.10;1.00;;;18.20;36.90;;;;;;10447085;28;20574;-73
2024/02/15 13:07:58;;;;;;;1.23;1.07;;;18.30;36.30;;;;;;10446836;28;20809;-72
2024/02/15 13:13:02;;;;;;;1.50;1.10;;;18.30;36.00;;;;;;10446778;28;20227;-72
2024/02/15 13:18:05;;;;;;;9.53;1.77;;;18.30;36.50;;;;;;10446232;28;20257;-72
2024/02/15 13:23:19;;;;;;;2.00;1.33;;;18.30;36.00;;;;;;10444624;28;20316;-72
2024/02/15 13:28:24;;;;;;;1.53;1.43;;;18.40;35.60;;;;;;10446180;28;20266;-72
2024/02/15 13:33:31;;;;;;;1.30;1.17;;;18.40;36.20;;;;;;10445826;28;20788;-73
2024/02/15 13:38:36;;;;;;;1.20;1.00;;;18.40;36.20;;;;;;10446126;28;20230;-72
2024/02/15 13:43:41;;;;;;;3.07;1.47;;;18.40;35.80;;;;;;10446073;28;20944;-72
2024/02/15 13:48:44;;;;;;;1.60;1.33;;;18.50;36.00;;;;;;10445628;28;20231;-72
2024/02/15 13:53:49;;;;;;;1.50;1.40;;;18.60;35.70;;;;;;10445603;28;20910;-71
2024/02/15 13:58:52;;;;;;;2.57;1.40;;;18.50;35.20;;;;;;10445472;28;20317;-73
2024/02/15 14:03:55;;;;;;;2.27;1.30;;;18.50;35.40;;;;;;10443915;28;20240;-72
2024/02/15 14:09:02;;;;;;;3.80;2.70;;;18.60;35.80;;;;;;10444843;28;20232;-72
2024/02/15 14:14:05;;;;;;;2.57;1.53;;;18.60;35.30;;;;;;10445037;28;20229;-72
2024/02/15 14:19:08;;;;;;;2.03;1.47;;;18.60;35.40;;;;;;10445323;28;20233;-73
2024/02/15 14:24:13;;;;;;;1.60;1.50;;;18.60;35.30;;;;;;10445398;28;20722;-72
2024/02/15 14:29:20;;;;;;;2.80;1.63;;;18.60;35.30;;;;;;10452338;28;20733;-72
2024/02/15 14:34:25;;;;;;;1.50;1.40;;;18.70;35.40;;;;;;10451277;28;20695;-73
2024/02/15 14:39:30;;;;;;;4.33;1.60;;;18.60;35.30;;;;;;10451415;28;20745;-72
2024/02/15 14:44:34;;;;;;;2.40;1.70;;;18.60;36.00;;;;;;10451471;28;20307;-71
2024/02/15 14:49:37;;;;;;;1.80;1.60;;;18.60;35.30;;;;;;10452339;28;20633;-71
2024/02/15 14:54:43;;;;;;;1.90;1.63;;;18.60;35.30;;;;;;10451944;28;20291;-71
2024/02/15 14:59:46;;;;;;;2.30;1.50;;;18.60;35.00;;;;;;10451581;28;20642;-71
2024/02/15 15:12:36;;;;;;;2.23;1.60;;;18.70;35.40;;;;;;10451506;28;20259;-71
2024/02/15 15:15:46;;;;;;;1.90;1.60;;;18.70;35.20;;;;;;10450596;28;20225;-72
2024/02/15 15:20:50;;;;;;;3.10;1.70;;;18.70;35.40;;;;;;10450671;28;20235;-71
2024/02/15 15:25:55;;;;;;;3.07;1.80;;;18.70;35.30;;;;;;10450945;28;20708;-72
2024/02/15 15:30:58;;;;;;;2.00;1.60;;;18.60;34.30;;;;;;10450531;28;20220;-71
2024/02/15 15:36:03;;;;;;;1.67;1.57;;;18.50;35.10;;;;;;10448919;28;20274;-71
2024/02/15 15:41:09;;;;;;;9.67;8.77;;;18.40;35.10;;;;;;10450110;28;20225;-72
2024/02/15 15:46:15;;;;;;;3.83;3.27;;;18.40;34.40;;;;;;10449537;28;20233;-72
2024/02/15 15:51:18;;;;;;;1.80;1.70;;;18.30;34.60;;;;;;10449275;28;20300;-71
2024/02/15 15:56:24;;;;;;;2.13;1.57;;;18.20;35.60;;;;;;10448566;28;20232;-74
2024/02/15 16:01:27;;;;;;;2.13;1.30;;;18.20;34.90;;;;;;10449032;28;20220;-74
2024/02/15 16:06:30;;;;;;;1.53;1.10;;;18.10;34.80;;;;;;10448817;28;20235;-72
2024/02/15 16:11:35;;;;;;;1.40;1.30;;;18.10;34.80;;;;;;10448468;28;20409;-72
2024/02/15 16:16:39;;;;;;;2.20;1.40;;;18.00;34.70;;;;;;10446992;28;20229;-71
2024/02/15 16:21:43;;;;;;;1.10;1.10;;;17.90;34.70;;;;;;10447455;28;20245;-70
2024/02/15 16:26:47;;;;;;;1.30;1.20;;;17.90;35.40;;;;;;10448049;28;20279;-71
2024/02/15 16:31:53;;;;;;;2.17;1.30;;;17.90;34.90;;;;;;10448286;28;20647;-70
2024/02/15 16:36:57;;;;;;;1.33;1.23;;;18.00;35.20;;;;;;10447642;28;20232;-71
2024/02/15 16:42:03;;;;;;;3.20;2.47;;;18.10;34.90;;;;;;10447947;28;20256;-71
2024/02/15 16:47:06;;;;;;;2.20;2.00;;;18.00;34.80;;;;;;10447100;28;20910;-71
2024/02/15 16:52:16;;;;;;;2.30;2.10;;;18.10;34.80;;;;;;10447497;28;20787;-71
2024/02/15 16:57:21;;;;;;;2.10;1.90;;;18.00;34.70;;;;;;10447094;28;20328;-71
2024/02/15 17:02:24;;;;;;;2.37;1.67;;;18.00;34.70;;;;;;10447098;28;20231;-71
2024/02/15 17:07:28;;;;;;;1.57;1.47;;;17.90;34.70;;;;;;10447218;28;20228;-71
2024/02/15 17:12:34;;;;;;;1.97;1.87;;;17.80;34.60;;;;;;10447100;28;20231;-71
2024/02/15 17:17:37;;;;;;;2.93;2.63;;;17.80;34.60;;;;;;10446666;28;20263;-71
2024/02/15 17:22:42;;;;;;;4.47;2.90;;;17.70;34.50;;;;;;10446453;28;20307;-71
2024/02/15 17:27:46;;;;;;;4.57;3.70;;;17.60;34.40;;;;;;10445980;28;20736;-71
2024/02/15 17:32:50;;;;;;;7.73;5.43;;;17.50;34.30;;;;;;10446196;28;20217;-71
2024/02/15 17:37:54;;;;;;;6.70;5.60;;;17.40;34.50;;;;;;10446108;28;20229;-71
2024/02/15 17:42:59;;;;;;;6.53;5.87;;;17.30;34.60;;;;;;10446008;28;20249;-70
2024/02/15 17:48:02;;;;;;;6.20;5.60;;;17.20;34.40;;;;;;10445604;28;20224;-71
2024/02/15 17:53:05;;;;;;;6.67;5.70;;;17.10;34.80;;;;;;10446110;28;20426;-70
2024/02/15 17:58:09;;;;;;;8.63;6.70;;;17.00;35.00;;;;;;10445382;28;20726;-71
2024/02/15 18:03:13;;;;;;;7.07;6.37;;;16.80;34.60;;;;;;10452631;28;20221;-71
2024/02/15 18:08:17;;;;;;;7.67;6.97;;;16.80;34.70;;;;;;10453650;28;20232;-71
2024/02/15 18:13:23;;;;;;;9.87;8.87;;;16.70;35.00;;;;;;10453777;28;20227;-71
2024/02/15 18:18:28;;;;;;;10.10;8.90;;;16.60;34.90;;;;;;10453438;28;20243;-70
2024/02/15 18:23:32;;;;;;;11.60;8.80;;;16.50;35.00;;;;;;10453309;28;20596;-70
2024/02/15 18:28:37;;;;;;;13.57;10.80;;;16.50;35.00;;;;;;10453116;28;20240;-71
2024/02/15 18:33:41;;;;;;;18.70;12.47;;;16.40;35.10;;;;;;10452967;28;20303;-71
2024/02/15 18:38:46;;;;;;;18.40;12.77;;;16.30;35.10;;;;;;10452737;28;20225;-71
2024/02/15 18:43:51;;;;;;;16.90;12.33;;;16.30;35.10;;;;;;10452620;28;20221;-70
2024/02/15 18:48:55;;;;;;;14.23;10.40;;;16.10;35.00;;;;;;10452205;28;20229;-71
2024/02/15 18:53:58;;;;;;;13.07;9.67;;;16.00;34.90;;;;;;10452266;28;20229;-71
2024/02/15 18:59:06;;;;;;;10.60;8.83;;;15.90;35.00;;;;;;10451530;28;20286;-71
2024/02/15 19:04:09;;;;;;;9.13;7.93;;;15.80;35.10;;;;;;10451810;28;20298;-70
2024/02/15 19:09:12;;;;;;;9.23;7.80;;;15.70;35.10;;;;;;10451751;28;20961;-71
2024/02/15 19:14:18;;;;;;;8.30;5.83;;;15.70;35.30;;;;;;10451416;28;20740;-70
2024/02/15 19:19:21;;;;;;;6.50;5.67;;;15.60;35.30;;;;;;10450780;28;20278;-71
2024/02/15 19:24:24;;;;;;;6.83;5.63;;;15.60;35.50;;;;;;10450745;28;20229;-70
2024/02/15 19:29:29;;;;;;;6.07;5.47;;;15.50;35.50;;;;;;10450640;28;20232;-71
2024/02/15 19:34:33;;;;;;;6.10;5.50;;;15.50;35.50;;;;;;10449885;28;20272;-71
2024/02/15 19:39:38;;;;;;;6.10;5.50;;;15.50;35.50;;;;;;10449806;28;20232;-71
2024/02/15 19:44:44;;;;;;;7.03;5.70;;;15.40;35.40;;;;;;10450089;28;20229;-70
2024/02/15 19:49:47;;;;;;;6.07;5.10;;;15.30;35.50;;;;;;10449668;28;20233;-71
2024/02/15 19:54:51;;;;;;;5.97;5.33;;;15.30;35.40;;;;;;10449751;28;20225;-71
2024/02/15 19:59:56;;;;;;;5.40;4.90;;;15.20;35.50;;;;;;10449508;28;20220;-70
2024/02/15 20:05:00;;;;;;;6.73;4.80;;;15.10;35.50;;;;;;10449165;28;20279;-71
2024/02/15 20:10:04;;;;;;;4.67;4.27;;;15.10;35.70;;;;;;10449034;28;20225;-71
2024/02/15 20:15:10;;;;;;;4.80;4.30;;;15.10;35.80;;;;;;10448814;28;20228;-70
2024/02/15 20:20:15;;;;;;;4.80;4.37;;;15.00;35.90;;;;;;10447910;28;21215;-71
2024/02/15 20:25:20;;;;;;;4.43;4.03;;;14.90;35.90;;;;;;10448021;28;20302;-72
2024/02/15 20:30:25;;;;;;;4.37;3.97;;;14.90;35.90;;;;;;10447671;28;20229;-72
2024/02/15 20:35:28;;;;;;;4.40;4.00;;;14.90;36.00;;;;;;10447560;28;20225;-72
2024/02/15 20:40:32;;;;;;;4.07;3.77;;;14.80;35.90;;;;;;10447940;28;20233;-71
2024/02/15 20:45:37;;;;;;;4.40;4.00;;;14.70;35.90;;;;;;10447480;28;20235;-71
2024/02/15 20:50:40;;;;;;;4.97;4.53;;;14.70;35.90;;;;;;10447413;28;20266;-71
2024/02/15 20:55:44;;;;;;;4.80;4.30;;;14.60;35.90;;;;;;10447101;28;20236;-71
2024/02/15 21:00:49;;;;;;;5.17;4.67;;;14.60;35.90;;;;;;10447074;28;20332;-72
2024/02/15 21:05:53;;;;;;;5.00;4.50;;;14.50;35.90;;;;;;10447179;28;20224;-71
2024/02/15 21:10:59;;;;;;;4.60;4.20;;;14.40;35.90;;;;;;10446868;28;20237;-71
2024/02/15 21:16:06;;;;;;;4.73;4.30;;;14.40;35.90;;;;;;10445220;28;20237;-71
2024/02/15 21:21:10;;;;;;;4.90;4.47;;;14.30;35.90;;;;;;10443631;28;20233;-71
2024/02/15 21:26:14;;;;;;;4.50;4.10;;;14.20;35.90;;;;;;10443619;28;20276;-71
2024/02/15 21:31:19;;;;;;;4.40;4.00;;;14.20;36.00;;;;;;10443564;28;20224;-71
2024/02/15 21:36:23;;;;;;;4.43;4.03;;;14.10;36.10;;;;;;10447447;28;20314;-71
2024/02/15 21:41:26;;;;;;;5.17;4.27;;;14.00;36.00;;;;;;10452129;28;20263;-72
2024/02/15 21:46:31;;;;;;;4.93;4.33;;;14.00;35.90;;;;;;10451997;28;20312;-71
2024/02/15 21:51:35;;;;;;;4.63;4.23;;;13.90;35.90;;;;;;10451761;28;20233;-71
2024/02/15 21:56:38;;;;;;;4.77;4.37;;;13.90;36.00;;;;;;10451673;28;20260;-71
2024/02/15 22:01:42;;;;;;;5.03;4.53;;;13.80;35.80;;;;;;10451229;28;20287;-71
2024/02/15 22:06:46;;;;;;;4.73;4.33;;;13.70;35.80;;;;;;10451299;28;20260;-72
2024/02/15 22:11:50;;;;;;;5.07;4.57;;;13.60;35.60;;;;;;10450871;28;20279;-71
2024/02/15 22:16:54;;;;;;;4.93;4.43;;;13.50;35.60;;;;;;10450678;28;20715;-71
2024/02/15 22:21:58;;;;;;;5.27;4.67;;;13.40;35.80;;;;;;10450476;28;20624;-71
2024/02/15 22:27:01;;;;;;;5.73;4.27;;;13.30;35.90;;;;;;10450143;28;20802;-71
2024/02/15 22:32:07;;;;;;;4.57;4.17;;;13.20;35.80;;;;;;10450025;28;20228;-71
2024/02/15 22:37:11;;;;;;;4.50;4.10;;;13.10;35.90;;;;;;10449611;28;20233;-71
2024/02/15 22:42:16;;;;;;;4.73;4.33;;;13.10;35.80;;;;;;10449635;28;20257;-71
2024/02/15 22:47:21;;;;;;;5.60;4.20;;;12.90;35.90;;;;;;10451704;28;20221;-71
2024/02/15 22:52:24;;;;;;;4.87;3.93;;;12.90;35.90;;;;;;10452031;28;20324;-71
2024/02/15 22:57:28;;;;;;;4.60;3.90;;;12.80;36.00;;;;;;10451463;28;20335;-71
2024/02/15 23:02:34;;;;;;;4.30;3.90;;;12.80;35.90;;;;;;10451855;28;20229;-71
2024/02/15 23:07:38;;;;;;;4.57;4.17;;;12.70;35.90;;;;;;10451092;28;20225;-71
2024/02/15 23:12:42;;;;;;;6.43;4.67;;;12.70;35.90;;;;;;10451555;28;20771;-71
2024/02/15 23:17:47;;;;;;;5.00;4.50;;;12.70;36.00;;;;;;10451040;28;20233;-71
2024/02/15 23:22:50;;;;;;;4.70;4.30;;;12.60;35.90;;;;;;10450962;28;20612;-71
2024/02/15 23:27:53;;;;;;;4.50;4.07;;;12.50;35.70;;;;;;10450615;28;20229;-71
2024/02/15 23:32:58;;;;;;;4.50;4.10;;;12.50;35.80;;;;;;10450802;28;20229;-71
2024/02/15 23:43:22;;;;;;;4.67;4.27;;;12.30;35.90;;;;;;10450190;28;20236;-73
2024/02/15 23:48:27;;;;;;;4.83;4.20;;;12.20;35.80;;;;;;10449696;28;20605;-71
2024/02/15 23:53:31;;;;;;;4.97;4.20;;;12.10;35.70;;;;;;10449242;28;20316;-71
2024/02/15 23:58:34;;;;;;;4.40;4.10;;;11.90;35.90;;;;;;10448361;28;20229;-71
